Terminal Aerodrome Forecast
Issued by NWS

Home | Current Version | Previous Version | Text Only | Print | Product List | Glossary On
Versions: 1 2 3 4 5 6 7 8 9 10 11 12 13 14 15 16 17 18
693
FTUS42 KTBW 202332
TAFPIE
TAF
KPIE 202332Z 2100/2124 20007KT P6SM SCT250
     FM210800 18006KT 5SM BR BKN010 BKN250
     FM211400 17008KT P6SM SCT010 BKN120
     FM211600 18013G18KT P6SM SCT025 BKN120
     FM211900 19016G23KT P6SM SCT035 BKN120=

USA.gov is the U.S. government's official web portal to all federal, state and local government web resources and services.